ZWWW/URC METAR and TAF weather

Enter ICAO airport designator
Station Type Date Time Source
ZWWW METAR 2019/06/18 16:30 UTC NOAA

ZWWW 181630Z VRB01MPS CAVOK 25/09 Q1008 NOSIG


Station Type Date Time Source
ZWWW Decoded METAR 2019/06/18 16:30 UTC NOAA

Urum-Qi / Diwopu, China (ZWWW) 43-54N 087-28E
Jun 18, 2019 - 12:30 PM EDT / 2019.06.18 1630 UTC
Wind: Variable at 2 MPH (2 KT):0
Visibility: greater than 7 mile(s):0
Temperature: 77 F (25 C)
Dew Point: 48 F (9 C)
Relative Humidity: 36%
Pressure (altimeter): 29.77 in. Hg (1008 hPa)
ob: ZWWW 181630Z VRB01MPS CAVOK 25/09 Q1008 NOSIG
cycle: 16

Station Type Date Time Source
ZWWW TAF 2019/06/18 18:03 UTC NOAA

TAF TAF ZWWW 181504Z 1818/1918 16004MPS CAVOK TX33/1909Z TN22/1822Z
BECMG 1903/1904 29004G09MPS 9999 FEW040CB
BECMG 1914/1915 16004MPS CAVOK

Example: see airport list